sensor_id;sensor_type;location;lat;lon;timestamp;P1;durP1;ratioP1;P2;durP2;ratioP2
1479;SDS011;732;51.698;4.886;2023-08-24T00:01:52;12.63;;;7.90;;
1479;SDS011;732;51.698;4.886;2023-08-24T00:04:20;10.90;;;7.90;;
1479;SDS011;732;51.698;4.886;2023-08-24T00:06:49;13.40;;;8.37;;
1479;SDS011;732;51.698;4.886;2023-08-24T00:09:19;13.97;;;8.63;;
1479;SDS011;732;51.698;4.886;2023-08-24T00:11:48;11.37;;;9.27;;
1479;SDS011;732;51.698;4.886;2023-08-24T00:14:16;12.63;;;8.70;;
1479;SDS011;732;51.698;4.886;2023-08-24T00:16:45;11.40;;;7.90;;
1479;SDS011;732;51.698;4.886;2023-08-24T00:19:13;14.10;;;8.50;;
1479;SDS011;732;51.698;4.886;2023-08-24T00:21:41;12.13;;;8.97;;
1479;SDS011;732;51.698;4.886;2023-08-24T00:24:10;12.30;;;9.73;;
1479;SDS011;732;51.698;4.886;2023-08-24T00:26:39;14.73;;;9.70;;
1479;SDS011;732;51.698;4.886;2023-08-24T00:29:07;12.80;;;9.30;;
1479;SDS011;732;51.698;4.886;2023-08-24T00:31:36;14.20;;;9.90;;
1479;SDS011;732;51.698;4.886;2023-08-24T00:34:04;13.57;;;9.27;;
1479;SDS011;732;51.698;4.886;2023-08-24T00:36:32;12.90;;;9.20;;
1479;SDS011;732;51.698;4.886;2023-08-24T00:39:01;13.90;;;9.40;;
1479;SDS011;732;51.698;4.886;2023-08-24T00:41:30;14.50;;;9.73;;
1479;SDS011;732;51.698;4.886;2023-08-24T00:43:59;13.00;;;8.70;;
1479;SDS011;732;51.698;4.886;2023-08-24T00:46:30;12.13;;;8.83;;
1479;SDS011;732;51.698;4.886;2023-08-24T00:48:59;11.23;;;8.60;;
1479;SDS011;732;51.698;4.886;2023-08-24T00:51:27;12.67;;;9.40;;
1479;SDS011;732;51.698;4.886;2023-08-24T00:53:57;12.90;;;9.10;;
1479;SDS011;732;51.698;4.886;2023-08-24T00:56:25;15.13;;;9.23;;
1479;SDS011;732;51.698;4.886;2023-08-24T00:58:57;12.63;;;9.33;;
1479;SDS011;732;51.698;4.886;2023-08-24T01:01:27;13.63;;;9.60;;
1479;SDS011;732;51.698;4.886;2023-08-24T01:03:58;16.87;;;8.93;;
1479;SDS011;732;51.698;4.886;2023-08-24T01:06:27;14.57;;;9.90;;
1479;SDS011;732;51.698;4.886;2023-08-24T01:08:55;12.67;;;8.57;;
1479;SDS011;732;51.698;4.886;2023-08-24T01:11:26;12.80;;;9.50;;
1479;SDS011;732;51.698;4.886;2023-08-24T01:14:08;15.27;;;8.93;;
1479;SDS011;732;51.698;4.886;2023-08-24T01:16:47;19.63;;;11.03;;
1479;SDS011;732;51.698;4.886;2023-08-24T01:19:22;20.20;;;9.90;;
1479;SDS011;732;51.698;4.886;2023-08-24T01:22:06;16.00;;;10.20;;
1479;SDS011;732;51.698;4.886;2023-08-24T01:24:45;12.20;;;9.60;;
1479;SDS011;732;51.698;4.886;2023-08-24T01:27:22;12.93;;;9.23;;
1479;SDS011;732;51.698;4.886;2023-08-24T01:29:51;13.50;;;9.10;;
1479;SDS011;732;51.698;4.886;2023-08-24T01:32:24;12.03;;;9.20;;
1479;SDS011;732;51.698;4.886;2023-08-24T01:34:53;14.80;;;9.00;;
1479;SDS011;732;51.698;4.886;2023-08-24T01:37:21;12.43;;;7.90;;
1479;SDS011;732;51.698;4.886;2023-08-24T01:39:50;11.87;;;8.90;;
1479;SDS011;732;51.698;4.886;2023-08-24T01:42:30;11.43;;;7.63;;
1479;SDS011;732;51.698;4.886;2023-08-24T01:45:02;11.87;;;8.70;;
1479;SDS011;732;51.698;4.886;2023-08-24T01:47:34;10.27;;;7.77;;
1479;SDS011;732;51.698;4.886;2023-08-24T01:50:04;18.63;;;9.33;;
1479;SDS011;732;51.698;4.886;2023-08-24T01:52:34;11.63;;;8.60;;
1479;SDS011;732;51.698;4.886;2023-08-24T01:55:04;13.07;;;8.90;;
1479;SDS011;732;51.698;4.886;2023-08-24T01:57:34;9.80;;;8.60;;
1479;SDS011;732;51.698;4.886;2023-08-24T02:00:04;10.30;;;9.20;;
1479;SDS011;732;51.698;4.886;2023-08-24T02:02:39;12.60;;;8.73;;
1479;SDS011;732;51.698;4.886;2023-08-24T02:05:08;11.10;;;9.43;;
1479;SDS011;732;51.698;4.886;2023-08-24T02:07:36;12.40;;;8.90;;
1479;SDS011;732;51.698;4.886;2023-08-24T02:10:06;15.60;;;10.53;;
1479;SDS011;732;51.698;4.886;2023-08-24T02:12:36;11.73;;;9.53;;
1479;SDS011;732;51.698;4.886;2023-08-24T02:15:05;12.73;;;9.53;;
1479;SDS011;732;51.698;4.886;2023-08-24T02:17:36;15.60;;;10.73;;
1479;SDS011;732;51.698;4.886;2023-08-24T02:20:05;17.63;;;10.37;;
1479;SDS011;732;51.698;4.886;2023-08-24T02:22:35;17.03;;;11.30;;
1479;SDS011;732;51.698;4.886;2023-08-24T02:25:04;18.33;;;11.33;;
1479;SDS011;732;51.698;4.886;2023-08-24T02:27:34;17.10;;;11.07;;
1479;SDS011;732;51.698;4.886;2023-08-24T02:30:04;20.00;;;13.10;;
1479;SDS011;732;51.698;4.886;2023-08-24T02:32:34;15.73;;;10.97;;
1479;SDS011;732;51.698;4.886;2023-08-24T02:35:03;17.87;;;13.60;;
1479;SDS011;732;51.698;4.886;2023-08-24T02:37:34;19.53;;;12.70;;
1479;SDS011;732;51.698;4.886;2023-08-24T02:40:02;22.40;;;12.67;;
1479;SDS011;732;51.698;4.886;2023-08-24T02:42:33;18.20;;;11.80;;
1479;SDS011;732;51.698;4.886;2023-08-24T02:45:02;17.43;;;11.90;;
1479;SDS011;732;51.698;4.886;2023-08-24T02:47:32;17.70;;;11.30;;
1479;SDS011;732;51.698;4.886;2023-08-24T02:50:00;20.10;;;12.47;;
1479;SDS011;732;51.698;4.886;2023-08-24T02:52:30;17.73;;;11.60;;
1479;SDS011;732;51.698;4.886;2023-08-24T02:54:58;15.67;;;11.60;;
1479;SDS011;732;51.698;4.886;2023-08-24T02:57:27;22.17;;;13.00;;
1479;SDS011;732;51.698;4.886;2023-08-24T02:59:55;18.13;;;12.43;;
1479;SDS011;732;51.698;4.886;2023-08-24T03:02:25;17.23;;;12.83;;
1479;SDS011;732;51.698;4.886;2023-08-24T03:04:54;15.27;;;11.57;;
1479;SDS011;732;51.698;4.886;2023-08-24T03:07:22;20.17;;;13.90;;
1479;SDS011;732;51.698;4.886;2023-08-24T03:09:50;23.67;;;14.00;;
1479;SDS011;732;51.698;4.886;2023-08-24T03:12:19;17.40;;;12.30;;
1479;SDS011;732;51.698;4.886;2023-08-24T03:14:47;16.40;;;11.30;;
1479;SDS011;732;51.698;4.886;2023-08-24T03:17:20;18.47;;;12.93;;
1479;SDS011;732;51.698;4.886;2023-08-24T03:19:50;17.90;;;11.77;;
1479;SDS011;732;51.698;4.886;2023-08-24T03:22:20;21.13;;;13.67;;
1479;SDS011;732;51.698;4.886;2023-08-24T03:24:48;22.43;;;13.70;;
1479;SDS011;732;51.698;4.886;2023-08-24T03:27:16;16.03;;;11.67;;
1479;SDS011;732;51.698;4.886;2023-08-24T03:29:45;16.03;;;11.10;;
1479;SDS011;732;51.698;4.886;2023-08-24T03:32:14;15.97;;;12.03;;
1479;SDS011;732;51.698;4.886;2023-08-24T03:34:42;17.53;;;12.90;;
1479;SDS011;732;51.698;4.886;2023-08-24T03:37:11;26.03;;;16.50;;
1479;SDS011;732;51.698;4.886;2023-08-24T03:39:41;20.00;;;14.30;;
1479;SDS011;732;51.698;4.886;2023-08-24T03:42:09;19.13;;;14.57;;
1479;SDS011;732;51.698;4.886;2023-08-24T03:44:37;20.13;;;13.73;;
1479;SDS011;732;51.698;4.886;2023-08-24T03:47:05;23.10;;;16.63;;
1479;SDS011;732;51.698;4.886;2023-08-24T03:49:35;24.37;;;17.27;;
1479;SDS011;732;51.698;4.886;2023-08-24T03:52:04;21.80;;;15.50;;
1479;SDS011;732;51.698;4.886;2023-08-24T03:54:33;22.50;;;16.40;;
1479;SDS011;732;51.698;4.886;2023-08-24T03:57:02;31.50;;;17.97;;
1479;SDS011;732;51.698;4.886;2023-08-24T03:59:30;25.80;;;16.90;;
1479;SDS011;732;51.698;4.886;2023-08-24T04:02:00;22.30;;;15.20;;
1479;SDS011;732;51.698;4.886;2023-08-24T04:04:30;22.10;;;16.20;;
1479;SDS011;732;51.698;4.886;2023-08-24T04:06:58;25.00;;;16.60;;
1479;SDS011;732;51.698;4.886;2023-08-24T04:09:27;22.93;;;16.63;;
1479;SDS011;732;51.698;4.886;2023-08-24T04:11:57;25.70;;;16.87;;
1479;SDS011;732;51.698;4.886;2023-08-24T04:14:25;28.30;;;18.53;;
1479;SDS011;732;51.698;4.886;2023-08-24T04:16:55;22.07;;;16.63;;
1479;SDS011;732;51.698;4.886;2023-08-24T04:19:23;32.93;;;20.10;;
1479;SDS011;732;51.698;4.886;2023-08-24T04:21:51;25.27;;;18.00;;
1479;SDS011;732;51.698;4.886;2023-08-24T04:24:19;27.23;;;18.17;;
1479;SDS011;732;51.698;4.886;2023-08-24T04:26:48;25.00;;;18.20;;
1479;SDS011;732;51.698;4.886;2023-08-24T04:29:17;32.23;;;18.63;;
1479;SDS011;732;51.698;4.886;2023-08-24T04:31:45;22.17;;;17.30;;
1479;SDS011;732;51.698;4.886;2023-08-24T04:34:14;26.17;;;18.60;;
1479;SDS011;732;51.698;4.886;2023-08-24T04:36:42;29.80;;;20.77;;
1479;SDS011;732;51.698;4.886;2023-08-24T04:39:10;29.10;;;19.23;;
1479;SDS011;732;51.698;4.886;2023-08-24T04:41:39;24.57;;;18.20;;
1479;SDS011;732;51.698;4.886;2023-08-24T04:44:07;22.23;;;17.27;;
1479;SDS011;732;51.698;4.886;2023-08-24T04:46:36;27.63;;;20.27;;
1479;SDS011;732;51.698;4.886;2023-08-24T04:49:05;30.63;;;22.53;;
1479;SDS011;732;51.698;4.886;2023-08-24T04:51:33;28.70;;;20.43;;
1479;SDS011;732;51.698;4.886;2023-08-24T04:54:01;27.93;;;19.77;;
1479;SDS011;732;51.698;4.886;2023-08-24T04:56:30;29.23;;;20.97;;
1479;SDS011;732;51.698;4.886;2023-08-24T04:58:59;24.80;;;16.90;;
1479;SDS011;732;51.698;4.886;2023-08-24T05:01:28;28.77;;;19.27;;
1479;SDS011;732;51.698;4.886;2023-08-24T05:03:59;27.43;;;19.60;;
1479;SDS011;732;51.698;4.886;2023-08-24T05:06:27;29.57;;;21.20;;
1479;SDS011;732;51.698;4.886;2023-08-24T05:08:56;39.13;;;24.63;;
1479;SDS011;732;51.698;4.886;2023-08-24T05:11:26;35.63;;;23.13;;
1479;SDS011;732;51.698;4.886;2023-08-24T05:13:56;29.20;;;22.73;;
1479;SDS011;732;51.698;4.886;2023-08-24T05:16:25;32.00;;;22.00;;
1479;SDS011;732;51.698;4.886;2023-08-24T05:18:54;31.60;;;23.20;;
1479;SDS011;732;51.698;4.886;2023-08-24T05:21:24;29.80;;;21.40;;
1479;SDS011;732;51.698;4.886;2023-08-24T05:23:52;31.70;;;22.27;;
1479;SDS011;732;51.698;4.886;2023-08-24T05:26:20;33.80;;;24.47;;
1479;SDS011;732;51.698;4.886;2023-08-24T05:28:52;29.40;;;21.20;;
1479;SDS011;732;51.698;4.886;2023-08-24T05:31:20;33.90;;;23.10;;
1479;SDS011;732;51.698;4.886;2023-08-24T05:33:49;31.10;;;23.00;;
1479;SDS011;732;51.698;4.886;2023-08-24T05:36:17;26.60;;;22.10;;
1479;SDS011;732;51.698;4.886;2023-08-24T05:38:47;32.20;;;22.03;;
1479;SDS011;732;51.698;4.886;2023-08-24T05:41:18;31.07;;;21.23;;
1479;SDS011;732;51.698;4.886;2023-08-24T05:43:46;32.73;;;24.00;;
1479;SDS011;732;51.698;4.886;2023-08-24T05:46:14;33.10;;;23.00;;
1479;SDS011;732;51.698;4.886;2023-08-24T05:48:43;36.67;;;24.20;;
1479;SDS011;732;51.698;4.886;2023-08-24T05:51:11;33.43;;;23.73;;
1479;SDS011;732;51.698;4.886;2023-08-24T05:53:39;35.23;;;24.43;;
1479;SDS011;732;51.698;4.886;2023-08-24T05:56:09;33.23;;;24.17;;
1479;SDS011;732;51.698;4.886;2023-08-24T05:58:37;33.23;;;25.67;;
1479;SDS011;732;51.698;4.886;2023-08-24T06:01:05;33.93;;;25.30;;
1479;SDS011;732;51.698;4.886;2023-08-24T06:03:34;39.33;;;27.67;;
1479;SDS011;732;51.698;4.886;2023-08-24T06:06:02;34.37;;;25.50;;
1479;SDS011;732;51.698;4.886;2023-08-24T06:08:31;34.60;;;27.40;;
1479;SDS011;732;51.698;4.886;2023-08-24T06:10:59;36.33;;;27.87;;
1479;SDS011;732;51.698;4.886;2023-08-24T06:13:29;40.17;;;28.00;;
1479;SDS011;732;51.698;4.886;2023-08-24T06:15:58;40.13;;;30.63;;
1479;SDS011;732;51.698;4.886;2023-08-24T06:18:26;40.30;;;32.10;;
1479;SDS011;732;51.698;4.886;2023-08-24T06:20:55;40.97;;;30.60;;
1479;SDS011;732;51.698;4.886;2023-08-24T06:23:23;33.77;;;26.53;;
1479;SDS011;732;51.698;4.886;2023-08-24T06:25:52;35.93;;;27.80;;
1479;SDS011;732;51.698;4.886;2023-08-24T06:28:20;37.90;;;29.90;;
1479;SDS011;732;51.698;4.886;2023-08-24T06:30:50;42.40;;;30.37;;
1479;SDS011;732;51.698;4.886;2023-08-24T06:33:18;39.13;;;30.70;;
1479;SDS011;732;51.698;4.886;2023-08-24T06:35:46;44.97;;;31.53;;
1479;SDS011;732;51.698;4.886;2023-08-24T06:38:15;39.27;;;28.53;;
1479;SDS011;732;51.698;4.886;2023-08-24T06:40:44;38.83;;;29.60;;
1479;SDS011;732;51.698;4.886;2023-08-24T06:43:12;46.00;;;30.07;;
1479;SDS011;732;51.698;4.886;2023-08-24T06:45:40;41.03;;;29.37;;
1479;SDS011;732;51.698;4.886;2023-08-24T06:53:00;34.87;;;29.10;;
1479;SDS011;732;51.698;4.886;2023-08-24T06:55:29;36.53;;;30.23;;
1479;SDS011;732;51.698;4.886;2023-08-24T06:57:58;40.43;;;29.47;;
1479;SDS011;732;51.698;4.886;2023-08-24T07:00:26;35.77;;;28.80;;
1479;SDS011;732;51.698;4.886;2023-08-24T07:02:55;42.03;;;30.20;;
1479;SDS011;732;51.698;4.886;2023-08-24T07:05:23;40.10;;;29.73;;
1479;SDS011;732;51.698;4.886;2023-08-24T07:07:52;39.20;;;29.60;;
1479;SDS011;732;51.698;4.886;2023-08-24T07:10:22;35.70;;;28.07;;
1479;SDS011;732;51.698;4.886;2023-08-24T07:12:50;42.13;;;28.80;;
1479;SDS011;732;51.698;4.886;2023-08-24T07:15:19;37.30;;;27.00;;
1479;SDS011;732;51.698;4.886;2023-08-24T07:17:47;34.00;;;26.90;;
1479;SDS011;732;51.698;4.886;2023-08-24T07:20:16;32.67;;;26.07;;
1479;SDS011;732;51.698;4.886;2023-08-24T07:22:46;39.43;;;26.20;;
1479;SDS011;732;51.698;4.886;2023-08-24T07:25:14;31.57;;;24.20;;
1479;SDS011;732;51.698;4.886;2023-08-24T07:32:16;28.37;;;24.60;;
1479;SDS011;732;51.698;4.886;2023-08-24T07:34:45;28.63;;;23.00;;
1479;SDS011;732;51.698;4.886;2023-08-24T07:37:14;26.87;;;22.10;;
1479;SDS011;732;51.698;4.886;2023-08-24T07:39:42;33.17;;;24.50;;
1479;SDS011;732;51.698;4.886;2023-08-24T07:42:10;24.23;;;21.57;;
1479;SDS011;732;51.698;4.886;2023-08-24T07:44:38;25.30;;;22.20;;
1479;SDS011;732;51.698;4.886;2023-08-24T07:47:07;27.00;;;20.37;;
1479;SDS011;732;51.698;4.886;2023-08-24T07:49:36;27.30;;;21.63;;
1479;SDS011;732;51.698;4.886;2023-08-24T07:52:09;24.37;;;20.50;;
1479;SDS011;732;51.698;4.886;2023-08-24T07:54:38;26.57;;;21.70;;
1479;SDS011;732;51.698;4.886;2023-08-24T07:57:07;25.50;;;20.60;;
1479;SDS011;732;51.698;4.886;2023-08-24T07:59:35;26.90;;;21.80;;
1479;SDS011;732;51.698;4.886;2023-08-24T08:02:04;24.43;;;21.60;;
1479;SDS011;732;51.698;4.886;2023-08-24T08:04:32;25.30;;;20.60;;
1479;SDS011;732;51.698;4.886;2023-08-24T08:07:01;28.20;;;20.30;;
1479;SDS011;732;51.698;4.886;2023-08-24T08:09:30;26.17;;;21.87;;
1479;SDS011;732;51.698;4.886;2023-08-24T08:11:58;22.27;;;19.87;;
1479;SDS011;732;51.698;4.886;2023-08-24T08:14:26;22.40;;;19.17;;
1479;SDS011;732;51.698;4.886;2023-08-24T08:16:55;32.80;;;21.00;;
1479;SDS011;732;51.698;4.886;2023-08-24T08:19:24;23.47;;;19.77;;
1479;SDS011;732;51.698;4.886;2023-08-24T08:21:54;23.63;;;19.50;;
1479;SDS011;732;51.698;4.886;2023-08-24T08:24:24;23.20;;;19.67;;
1479;SDS011;732;51.698;4.886;2023-08-24T08:26:52;22.83;;;18.90;;
1479;SDS011;732;51.698;4.886;2023-08-24T08:29:20;26.20;;;19.27;;
1479;SDS011;732;51.698;4.886;2023-08-24T08:31:49;23.97;;;18.63;;
1479;SDS011;732;51.698;4.886;2023-08-24T08:34:17;25.13;;;19.47;;
1479;SDS011;732;51.698;4.886;2023-08-24T08:36:46;24.77;;;18.30;;
1479;SDS011;732;51.698;4.886;2023-08-24T08:39:14;21.57;;;17.63;;
1479;SDS011;732;51.698;4.886;2023-08-24T08:41:45;21.20;;;16.70;;
1479;SDS011;732;51.698;4.886;2023-08-24T08:44:14;18.27;;;16.30;;
1479;SDS011;732;51.698;4.886;2023-08-24T08:46:43;19.20;;;15.93;;
1479;SDS011;732;51.698;4.886;2023-08-24T08:49:12;22.37;;;16.30;;
1479;SDS011;732;51.698;4.886;2023-08-24T08:51:43;22.83;;;16.03;;
1479;SDS011;732;51.698;4.886;2023-08-24T08:54:11;16.77;;;14.90;;
1479;SDS011;732;51.698;4.886;2023-08-24T08:56:40;20.30;;;16.07;;
1479;SDS011;732;51.698;4.886;2023-08-24T08:59:10;20.07;;;15.77;;
1479;SDS011;732;51.698;4.886;2023-08-24T09:01:41;20.37;;;15.50;;
1479;SDS011;732;51.698;4.886;2023-08-24T09:04:14;18.50;;;14.90;;
1479;SDS011;732;51.698;4.886;2023-08-24T09:06:42;18.67;;;15.73;;
1479;SDS011;732;51.698;4.886;2023-08-24T09:09:11;18.30;;;15.63;;
1479;SDS011;732;51.698;4.886;2023-08-24T09:11:39;20.30;;;15.53;;
1479;SDS011;732;51.698;4.886;2023-08-24T09:14:08;18.37;;;15.80;;
1479;SDS011;732;51.698;4.886;2023-08-24T09:16:38;17.93;;;15.70;;
1479;SDS011;732;51.698;4.886;2023-08-24T09:19:10;20.33;;;15.53;;
1479;SDS011;732;51.698;4.886;2023-08-24T09:21:39;18.80;;;15.20;;
1479;SDS011;732;51.698;4.886;2023-08-24T09:24:08;17.70;;;15.27;;
1479;SDS011;732;51.698;4.886;2023-08-24T09:26:39;18.33;;;16.10;;
1479;SDS011;732;51.698;4.886;2023-08-24T09:29:14;17.47;;;15.67;;
1479;SDS011;732;51.698;4.886;2023-08-24T09:31:43;19.00;;;15.30;;
1479;SDS011;732;51.698;4.886;2023-08-24T09:34:12;21.30;;;15.43;;
1479;SDS011;732;51.698;4.886;2023-08-24T09:36:41;17.70;;;15.30;;
1479;SDS011;732;51.698;4.886;2023-08-24T09:39:12;19.50;;;14.60;;
1479;SDS011;732;51.698;4.886;2023-08-24T09:41:44;15.20;;;13.60;;
1479;SDS011;732;51.698;4.886;2023-08-24T09:44:16;17.60;;;14.47;;
1479;SDS011;732;51.698;4.886;2023-08-24T09:46:46;16.93;;;14.10;;
1479;SDS011;732;51.698;4.886;2023-08-24T09:49:14;16.20;;;13.93;;
1479;SDS011;732;51.698;4.886;2023-08-24T09:51:43;19.87;;;13.97;;
1479;SDS011;732;51.698;4.886;2023-08-24T09:54:12;17.40;;;15.10;;
1479;SDS011;732;51.698;4.886;2023-08-24T09:56:43;18.43;;;14.97;;
1479;SDS011;732;51.698;4.886;2023-08-24T09:59:16;15.77;;;13.67;;
1479;SDS011;732;51.698;4.886;2023-08-24T10:01:46;20.67;;;14.90;;
1479;SDS011;732;51.698;4.886;2023-08-24T10:04:17;20.07;;;15.40;;
1479;SDS011;732;51.698;4.886;2023-08-24T10:06:52;19.60;;;16.33;;
1479;SDS011;732;51.698;4.886;2023-08-24T10:09:27;20.33;;;15.80;;
1479;SDS011;732;51.698;4.886;2023-08-24T10:12:06;20.93;;;15.83;;
1479;SDS011;732;51.698;4.886;2023-08-24T10:14:39;29.20;;;15.83;;
1479;SDS011;732;51.698;4.886;2023-08-24T10:17:14;20.13;;;17.20;;
1479;SDS011;732;51.698;4.886;2023-08-24T10:19:44;23.93;;;17.30;;
1479;SDS011;732;51.698;4.886;2023-08-24T10:22:14;19.00;;;16.87;;
1479;SDS011;732;51.698;4.886;2023-08-24T10:24:43;25.80;;;19.30;;
1479;SDS011;732;51.698;4.886;2023-08-24T10:27:12;20.70;;;18.03;;
1479;SDS011;732;51.698;4.886;2023-08-24T10:29:43;26.40;;;18.20;;
1479;SDS011;732;51.698;4.886;2023-08-24T10:32:12;25.17;;;19.20;;
1479;SDS011;732;51.698;4.886;2023-08-24T10:34:41;21.77;;;18.00;;
1479;SDS011;732;51.698;4.886;2023-08-24T10:37:10;19.37;;;17.03;;
1479;SDS011;732;51.698;4.886;2023-08-24T10:39:44;23.10;;;18.63;;
1479;SDS011;732;51.698;4.886;2023-08-24T10:42:13;21.10;;;18.00;;
1479;SDS011;732;51.698;4.886;2023-08-24T10:44:45;24.07;;;17.93;;
1479;SDS011;732;51.698;4.886;2023-08-24T10:47:15;22.77;;;18.17;;
1479;SDS011;732;51.698;4.886;2023-08-24T10:49:56;20.43;;;18.10;;
1479;SDS011;732;51.698;4.886;2023-08-24T10:52:30;20.73;;;17.23;;
1479;SDS011;732;51.698;4.886;2023-08-24T10:55:00;23.17;;;18.27;;
1479;SDS011;732;51.698;4.886;2023-08-24T10:57:37;22.20;;;18.60;;
1479;SDS011;732;51.698;4.886;2023-08-24T11:00:12;20.43;;;17.30;;
1479;SDS011;732;51.698;4.886;2023-08-24T11:02:41;20.50;;;17.27;;
1479;SDS011;732;51.698;4.886;2023-08-24T11:05:14;22.00;;;18.80;;
1479;SDS011;732;51.698;4.886;2023-08-24T11:07:52;25.47;;;19.60;;
1479;SDS011;732;51.698;4.886;2023-08-24T11:10:22;22.53;;;17.37;;
1479;SDS011;732;51.698;4.886;2023-08-24T11:13:04;21.53;;;17.93;;
1479;SDS011;732;51.698;4.886;2023-08-24T11:15:39;22.30;;;17.70;;
1479;SDS011;732;51.698;4.886;2023-08-24T11:18:22;21.50;;;18.33;;
1479;SDS011;732;51.698;4.886;2023-08-24T11:20:53;19.27;;;17.20;;
1479;SDS011;732;51.698;4.886;2023-08-24T11:23:24;20.90;;;18.13;;
1479;SDS011;732;51.698;4.886;2023-08-24T11:25:53;24.10;;;19.23;;
1479;SDS011;732;51.698;4.886;2023-08-24T11:28:24;20.30;;;17.97;;
1479;SDS011;732;51.698;4.886;2023-08-24T11:30:56;22.33;;;19.40;;
1479;SDS011;732;51.698;4.886;2023-08-24T11:33:29;26.23;;;19.40;;
1479;SDS011;732;51.698;4.886;2023-08-24T11:35:58;23.30;;;20.20;;
1479;SDS011;732;51.698;4.886;2023-08-24T11:38:37;25.53;;;19.63;;
1479;SDS011;732;51.698;4.886;2023-08-24T11:41:12;21.97;;;19.60;;
1479;SDS011;732;51.698;4.886;2023-08-24T11:43:42;29.17;;;20.13;;
1479;SDS011;732;51.698;4.886;2023-08-24T11:46:12;25.53;;;21.33;;
1479;SDS011;732;51.698;4.886;2023-08-24T11:48:42;24.00;;;20.30;;
1479;SDS011;732;51.698;4.886;2023-08-24T11:51:12;23.53;;;20.93;;
1479;SDS011;732;51.698;4.886;2023-08-24T11:53:48;26.80;;;20.40;;
1479;SDS011;732;51.698;4.886;2023-08-24T11:56:17;22.63;;;19.60;;
1479;SDS011;732;51.698;4.886;2023-08-24T11:58:48;22.47;;;20.20;;
1479;SDS011;732;51.698;4.886;2023-08-24T12:01:20;23.80;;;20.23;;
1479;SDS011;732;51.698;4.886;2023-08-24T12:03:49;20.43;;;18.10;;
1479;SDS011;732;51.698;4.886;2023-08-24T12:06:17;21.00;;;18.30;;
1479;SDS011;732;51.698;4.886;2023-08-24T12:08:46;21.57;;;17.13;;
1479;SDS011;732;51.698;4.886;2023-08-24T12:11:17;26.27;;;19.47;;
1479;SDS011;732;51.698;4.886;2023-08-24T12:13:52;24.30;;;18.00;;
1479;SDS011;732;51.698;4.886;2023-08-24T12:16:23;21.90;;;17.60;;
1479;SDS011;732;51.698;4.886;2023-08-24T12:18:52;24.70;;;18.30;;
1479;SDS011;732;51.698;4.886;2023-08-24T12:21:22;24.40;;;18.33;;
1479;SDS011;732;51.698;4.886;2023-08-24T12:23:54;21.00;;;18.90;;
1479;SDS011;732;51.698;4.886;2023-08-24T12:26:25;21.70;;;17.67;;
1479;SDS011;732;51.698;4.886;2023-08-24T12:28:55;20.40;;;17.33;;
1479;SDS011;732;51.698;4.886;2023-08-24T12:31:32;18.97;;;16.73;;
1479;SDS011;732;51.698;4.886;2023-08-24T12:34:01;16.47;;;14.87;;
1479;SDS011;732;51.698;4.886;2023-08-24T12:36:31;17.47;;;14.93;;
1479;SDS011;732;51.698;4.886;2023-08-24T12:39:03;19.67;;;15.27;;
1479;SDS011;732;51.698;4.886;2023-08-24T12:41:32;16.07;;;14.37;;
1479;SDS011;732;51.698;4.886;2023-08-24T12:44:02;16.77;;;14.17;;
1479;SDS011;732;51.698;4.886;2023-08-24T12:46:33;17.90;;;14.63;;
1479;SDS011;732;51.698;4.886;2023-08-24T12:49:02;18.93;;;14.20;;
1479;SDS011;732;51.698;4.886;2023-08-24T12:51:31;15.60;;;13.03;;
1479;SDS011;732;51.698;4.886;2023-08-24T12:53:59;14.27;;;11.73;;
1479;SDS011;732;51.698;4.886;2023-08-24T12:56:27;16.43;;;11.87;;
1479;SDS011;732;51.698;4.886;2023-08-24T12:58:56;13.00;;;11.70;;
1479;SDS011;732;51.698;4.886;2023-08-24T13:01:25;17.27;;;12.93;;
1479;SDS011;732;51.698;4.886;2023-08-24T13:03:55;21.93;;;12.67;;
1479;SDS011;732;51.698;4.886;2023-08-24T13:06:23;14.33;;;11.13;;
1479;SDS011;732;51.698;4.886;2023-08-24T13:08:53;15.60;;;10.90;;
1479;SDS011;732;51.698;4.886;2023-08-24T13:11:23;15.40;;;10.00;;
1479;SDS011;732;51.698;4.886;2023-08-24T13:13:51;11.27;;;9.70;;
1479;SDS011;732;51.698;4.886;2023-08-24T13:16:19;13.70;;;8.70;;
1479;SDS011;732;51.698;4.886;2023-08-24T13:18:48;12.93;;;9.00;;
1479;SDS011;732;51.698;4.886;2023-08-24T13:21:17;13.07;;;9.73;;
1479;SDS011;732;51.698;4.886;2023-08-24T13:23:47;15.57;;;9.70;;
1479;SDS011;732;51.698;4.886;2023-08-24T13:26:19;12.13;;;9.30;;
1479;SDS011;732;51.698;4.886;2023-08-24T13:28:50;14.37;;;10.03;;
1479;SDS011;732;51.698;4.886;2023-08-24T13:31:19;14.27;;;10.90;;
1479;SDS011;732;51.698;4.886;2023-08-24T13:33:47;16.50;;;9.77;;
1479;SDS011;732;51.698;4.886;2023-08-24T13:36:17;12.70;;;8.77;;
1479;SDS011;732;51.698;4.886;2023-08-24T13:38:46;12.00;;;8.87;;
1479;SDS011;732;51.698;4.886;2023-08-24T13:41:16;15.90;;;10.40;;
1479;SDS011;732;51.698;4.886;2023-08-24T13:43:46;11.87;;;8.90;;
1479;SDS011;732;51.698;4.886;2023-08-24T13:46:14;11.40;;;9.63;;
1479;SDS011;732;51.698;4.886;2023-08-24T13:48:42;17.60;;;9.23;;
1479;SDS011;732;51.698;4.886;2023-08-24T13:51:11;10.90;;;8.50;;
1479;SDS011;732;51.698;4.886;2023-08-24T13:53:43;11.63;;;8.03;;
1479;SDS011;732;51.698;4.886;2023-08-24T13:56:11;13.93;;;7.30;;
1479;SDS011;732;51.698;4.886;2023-08-24T13:58:40;15.13;;;7.33;;
1479;SDS011;732;51.698;4.886;2023-08-24T14:01:08;9.57;;;8.10;;
1479;SDS011;732;51.698;4.886;2023-08-24T14:03:37;12.37;;;8.37;;
1479;SDS011;732;51.698;4.886;2023-08-24T14:06:06;11.37;;;8.00;;
1479;SDS011;732;51.698;4.886;2023-08-24T14:08:34;11.60;;;7.63;;
1479;SDS011;732;51.698;4.886;2023-08-24T14:11:04;10.10;;;6.77;;
1479;SDS011;732;51.698;4.886;2023-08-24T14:13:33;11.10;;;6.80;;
1479;SDS011;732;51.698;4.886;2023-08-24T14:16:04;10.20;;;6.57;;
1479;SDS011;732;51.698;4.886;2023-08-24T14:18:33;8.37;;;5.90;;
1479;SDS011;732;51.698;4.886;2023-08-24T14:21:03;8.33;;;5.80;;
1479;SDS011;732;51.698;4.886;2023-08-24T14:23:33;12.03;;;5.70;;
1479;SDS011;732;51.698;4.886;2023-08-24T14:26:01;10.90;;;5.20;;
1479;SDS011;732;51.698;4.886;2023-08-24T14:31:21;10.73;;;5.63;;
1479;SDS011;732;51.698;4.886;2023-08-24T14:33:50;7.77;;;5.73;;
1479;SDS011;732;51.698;4.886;2023-08-24T14:36:20;6.87;;;4.93;;
1479;SDS011;732;51.698;4.886;2023-08-24T14:38:49;10.70;;;5.50;;
1479;SDS011;732;51.698;4.886;2023-08-24T14:41:18;11.00;;;5.50;;
1479;SDS011;732;51.698;4.886;2023-08-24T14:43:47;14.07;;;5.07;;
1479;SDS011;732;51.698;4.886;2023-08-24T14:46:17;22.97;;;5.70;;
1479;SDS011;732;51.698;4.886;2023-08-24T14:48:46;7.63;;;4.90;;
1479;SDS011;732;51.698;4.886;2023-08-24T14:51:14;11.87;;;4.40;;
1479;SDS011;732;51.698;4.886;2023-08-24T14:53:44;9.07;;;4.60;;
1479;SDS011;732;51.698;4.886;2023-08-24T14:56:13;6.07;;;4.23;;
1479;SDS011;732;51.698;4.886;2023-08-24T14:58:42;6.07;;;4.20;;
1479;SDS011;732;51.698;4.886;2023-08-24T15:01:12;7.43;;;4.90;;
1479;SDS011;732;51.698;4.886;2023-08-24T15:03:41;10.50;;;4.60;;
1479;SDS011;732;51.698;4.886;2023-08-24T15:06:10;7.00;;;4.60;;
1479;SDS011;732;51.698;4.886;2023-08-24T15:08:38;8.07;;;5.00;;
1479;SDS011;732;51.698;4.886;2023-08-24T15:11:07;7.50;;;4.73;;
1479;SDS011;732;51.698;4.886;2023-08-24T15:13:37;8.77;;;4.43;;
1479;SDS011;732;51.698;4.886;2023-08-24T15:16:06;7.20;;;4.50;;
1479;SDS011;732;51.698;4.886;2023-08-24T15:18:38;5.97;;;3.90;;
1479;SDS011;732;51.698;4.886;2023-08-24T15:21:06;5.20;;;4.10;;
1479;SDS011;732;51.698;4.886;2023-08-24T15:23:35;7.53;;;3.93;;
1479;SDS011;732;51.698;4.886;2023-08-24T15:26:03;6.33;;;4.60;;
1479;SDS011;732;51.698;4.886;2023-08-24T15:28:35;6.40;;;3.40;;
1479;SDS011;732;51.698;4.886;2023-08-24T15:31:24;6.03;;;3.97;;
1479;SDS011;732;51.698;4.886;2023-08-24T15:33:54;4.77;;;3.80;;